sensor_id;sensor_type;location;lat;lon;timestamp;P1;durP1;ratioP1;P2;durP2;ratioP2
17214;SDS011;8723;51.502;6.918;2023-06-10T00:00:21;37.38;;;35.58;;
17214;SDS011;8723;51.502;6.918;2023-06-10T00:02:48;39.47;;;37.58;;
17214;SDS011;8723;51.502;6.918;2023-06-10T00:05:16;40.92;;;38.95;;
17214;SDS011;8723;51.502;6.918;2023-06-10T00:07:46;40.78;;;38.88;;
17214;SDS011;8723;51.502;6.918;2023-06-10T00:10:13;33.13;;;31.42;;
17214;SDS011;8723;51.502;6.918;2023-06-10T00:12:40;31.38;;;29.58;;
17214;SDS011;8723;51.502;6.918;2023-06-10T00:15:09;48.05;;;45.80;;
17214;SDS011;8723;51.502;6.918;2023-06-10T00:17:36;47.78;;;45.58;;
17214;SDS011;8723;51.502;6.918;2023-06-10T00:20:04;46.80;;;44.63;;
17214;SDS011;8723;51.502;6.918;2023-06-10T00:22:35;55.22;;;52.65;;
17214;SDS011;8723;51.502;6.918;2023-06-10T00:25:02;45.28;;;43.10;;
17214;SDS011;8723;51.502;6.918;2023-06-10T00:27:30;86.47;;;82.78;;
17214;SDS011;8723;51.502;6.918;2023-06-10T00:30:00;45.50;;;43.40;;
17214;SDS011;8723;51.502;6.918;2023-06-10T00:32:27;52.43;;;50.03;;
17214;SDS011;8723;51.502;6.918;2023-06-10T00:34:54;57.63;;;54.85;;
17214;SDS011;8723;51.502;6.918;2023-06-10T00:37:21;50.15;;;47.75;;
17214;SDS011;8723;51.502;6.918;2023-06-10T00:39:49;43.30;;;41.30;;
17214;SDS011;8723;51.502;6.918;2023-06-10T00:42:16;45.40;;;43.30;;
17214;SDS011;8723;51.502;6.918;2023-06-10T00:44:44;54.63;;;52.08;;
17214;SDS011;8723;51.502;6.918;2023-06-10T00:47:11;63.17;;;60.40;;
17214;SDS011;8723;51.502;6.918;2023-06-10T00:49:37;83.20;;;79.38;;
17214;SDS011;8723;51.502;6.918;2023-06-10T00:52:05;78.65;;;74.95;;
17214;SDS011;8723;51.502;6.918;2023-06-10T00:54:33;68.13;;;65.05;;
17214;SDS011;8723;51.502;6.918;2023-06-10T00:57:01;88.47;;;84.60;;
17214;SDS011;8723;51.502;6.918;2023-06-10T00:59:28;79.75;;;76.25;;
17214;SDS011;8723;51.502;6.918;2023-06-10T01:01:56;107.80;;;102.95;;
17214;SDS011;8723;51.502;6.918;2023-06-10T01:04:23;95.20;;;90.88;;
17214;SDS011;8723;51.502;6.918;2023-06-10T01:06:52;92.18;;;88.15;;
17214;SDS011;8723;51.502;6.918;2023-06-10T01:09:24;94.30;;;89.95;;
17214;SDS011;8723;51.502;6.918;2023-06-10T01:12:01;95.53;;;91.28;;
17214;SDS011;8723;51.502;6.918;2023-06-10T01:14:33;87.75;;;83.72;;
17214;SDS011;8723;51.502;6.918;2023-06-10T01:17:01;87.85;;;83.82;;
17214;SDS011;8723;51.502;6.918;2023-06-10T01:19:29;96.32;;;91.90;;
17214;SDS011;8723;51.502;6.918;2023-06-10T01:21:58;116.07;;;110.88;;
17214;SDS011;8723;51.502;6.918;2023-06-10T01:24:25;102.45;;;97.80;;
17214;SDS011;8723;51.502;6.918;2023-06-10T01:26:53;100.10;;;95.63;;
17214;SDS011;8723;51.502;6.918;2023-06-10T01:29:25;90.90;;;86.70;;
17214;SDS011;8723;51.502;6.918;2023-06-10T01:32:01;112.60;;;107.57;;
17214;SDS011;8723;51.502;6.918;2023-06-10T01:34:32;168.02;;;160.80;;
17214;SDS011;8723;51.502;6.918;2023-06-10T01:37:02;149.60;;;143.37;;
17214;SDS011;8723;51.502;6.918;2023-06-10T01:39:30;150.15;;;143.75;;
17214;SDS011;8723;51.502;6.918;2023-06-10T01:41:59;143.15;;;137.25;;
17214;SDS011;8723;51.502;6.918;2023-06-10T01:44:30;126.72;;;121.53;;
17214;SDS011;8723;51.502;6.918;2023-06-10T01:46:57;135.43;;;129.87;;
17214;SDS011;8723;51.502;6.918;2023-06-10T01:49:26;115.97;;;111.13;;
17214;SDS011;8723;51.502;6.918;2023-06-10T01:51:56;100.03;;;95.70;;
17214;SDS011;8723;51.502;6.918;2023-06-10T01:54:28;104.10;;;99.70;;
17214;SDS011;8723;51.502;6.918;2023-06-10T01:57:00;78.35;;;74.85;;
17214;SDS011;8723;51.502;6.918;2023-06-10T01:59:32;106.67;;;102.10;;
17214;SDS011;8723;51.502;6.918;2023-06-10T02:02:02;58.30;;;55.53;;
17214;SDS011;8723;51.502;6.918;2023-06-10T02:04:32;50.15;;;47.58;;
17214;SDS011;8723;51.502;6.918;2023-06-10T02:07:02;58.40;;;55.40;;
17214;SDS011;8723;51.502;6.918;2023-06-10T02:09:33;66.55;;;63.45;;
17214;SDS011;8723;51.502;6.918;2023-06-10T02:12:02;71.32;;;67.63;;
17214;SDS011;8723;51.502;6.918;2023-06-10T02:14:32;75.68;;;72.13;;
17214;SDS011;8723;51.502;6.918;2023-06-10T02:16:59;98.60;;;94.18;;
17214;SDS011;8723;51.502;6.918;2023-06-10T02:19:26;96.80;;;92.50;;
17214;SDS011;8723;51.502;6.918;2023-06-10T02:21:56;86.53;;;82.50;;
17214;SDS011;8723;51.502;6.918;2023-06-10T02:24:26;99.63;;;95.10;;
17214;SDS011;8723;51.502;6.918;2023-06-10T02:26:57;121.97;;;116.47;;
17214;SDS011;8723;51.502;6.918;2023-06-10T02:29:27;82.72;;;78.95;;
17214;SDS011;8723;51.502;6.918;2023-06-10T02:31:54;61.88;;;58.88;;
17214;SDS011;8723;51.502;6.918;2023-06-10T02:34:23;81.78;;;77.97;;
17214;SDS011;8723;51.502;6.918;2023-06-10T02:36:53;64.60;;;61.50;;
17214;SDS011;8723;51.502;6.918;2023-06-10T02:39:21;58.73;;;55.77;;
17214;SDS011;8723;51.502;6.918;2023-06-10T02:41:49;66.53;;;63.33;;
17214;SDS011;8723;51.502;6.918;2023-06-10T02:44:18;72.95;;;69.53;;
17214;SDS011;8723;51.502;6.918;2023-06-10T02:46:45;67.60;;;64.30;;
17214;SDS011;8723;51.502;6.918;2023-06-10T02:49:12;58.08;;;55.08;;
17214;SDS011;8723;51.502;6.918;2023-06-10T02:51:39;48.33;;;45.63;;
17214;SDS011;8723;51.502;6.918;2023-06-10T02:54:05;52.10;;;49.38;;
17214;SDS011;8723;51.502;6.918;2023-06-10T02:56:32;47.95;;;45.35;;
17214;SDS011;8723;51.502;6.918;2023-06-10T02:58:59;44.15;;;41.70;;
17214;SDS011;8723;51.502;6.918;2023-06-10T03:01:29;50.35;;;47.80;;
17214;SDS011;8723;51.502;6.918;2023-06-10T03:03:59;46.23;;;43.73;;
17214;SDS011;8723;51.502;6.918;2023-06-10T03:06:28;54.47;;;51.78;;
17214;SDS011;8723;51.502;6.918;2023-06-10T03:08:59;56.53;;;53.67;;
17214;SDS011;8723;51.502;6.918;2023-06-10T03:11:29;59.40;;;56.50;;
17214;SDS011;8723;51.502;6.918;2023-06-10T03:13:59;44.10;;;41.63;;
17214;SDS011;8723;51.502;6.918;2023-06-10T03:16:25;52.00;;;49.20;;
17214;SDS011;8723;51.502;6.918;2023-06-10T03:18:54;52.78;;;49.60;;
17214;SDS011;8723;51.502;6.918;2023-06-10T03:21:20;49.58;;;46.97;;
17214;SDS011;8723;51.502;6.918;2023-06-10T03:23:48;49.03;;;46.33;;
17214;SDS011;8723;51.502;6.918;2023-06-10T03:26:14;42.33;;;40.03;;
17214;SDS011;8723;51.502;6.918;2023-06-10T03:28:41;39.30;;;37.03;;
17214;SDS011;8723;51.502;6.918;2023-06-10T03:31:08;39.47;;;37.07;;
17214;SDS011;8723;51.502;6.918;2023-06-10T03:33:35;37.70;;;35.60;;
17214;SDS011;8723;51.502;6.918;2023-06-10T03:36:04;43.67;;;41.33;;
17214;SDS011;8723;51.502;6.918;2023-06-10T03:38:31;36.72;;;34.80;;
17214;SDS011;8723;51.502;6.918;2023-06-10T03:40:58;35.25;;;33.25;;
17214;SDS011;8723;51.502;6.918;2023-06-10T03:43:25;34.92;;;33.05;;
17214;SDS011;8723;51.502;6.918;2023-06-10T03:45:52;35.53;;;33.53;;
17214;SDS011;8723;51.502;6.918;2023-06-10T03:48:19;39.63;;;37.42;;
17214;SDS011;8723;51.502;6.918;2023-06-10T03:50:46;37.33;;;35.20;;
17214;SDS011;8723;51.502;6.918;2023-06-10T03:53:17;34.65;;;32.55;;
17214;SDS011;8723;51.502;6.918;2023-06-10T03:55:43;35.65;;;33.55;;
17214;SDS011;8723;51.502;6.918;2023-06-10T03:58:11;32.95;;;30.95;;
17214;SDS011;8723;51.502;6.918;2023-06-10T04:00:38;39.63;;;37.22;;
17214;SDS011;8723;51.502;6.918;2023-06-10T04:03:07;37.50;;;35.40;;
17214;SDS011;8723;51.502;6.918;2023-06-10T04:05:39;27.90;;;26.02;;
17214;SDS011;8723;51.502;6.918;2023-06-10T04:08:06;24.70;;;23.00;;
17214;SDS011;8723;51.502;6.918;2023-06-10T04:10:34;25.52;;;23.83;;
17214;SDS011;8723;51.502;6.918;2023-06-10T04:13:01;37.92;;;35.83;;
17214;SDS011;8723;51.502;6.918;2023-06-10T04:15:29;19.75;;;18.20;;
17214;SDS011;8723;51.502;6.918;2023-06-10T04:17:57;16.30;;;15.18;;
17214;SDS011;8723;51.502;6.918;2023-06-10T04:20:25;16.15;;;14.85;;
17214;SDS011;8723;51.502;6.918;2023-06-10T04:22:51;15.57;;;14.38;;
17214;SDS011;8723;51.502;6.918;2023-06-10T04:25:18;15.85;;;14.63;;
17214;SDS011;8723;51.502;6.918;2023-06-10T04:27:47;17.33;;;16.10;;
17214;SDS011;8723;51.502;6.918;2023-06-10T04:30:15;16.50;;;15.20;;
17214;SDS011;8723;51.502;6.918;2023-06-10T04:32:42;14.65;;;13.48;;
17214;SDS011;8723;51.502;6.918;2023-06-10T04:35:11;15.90;;;14.70;;
17214;SDS011;8723;51.502;6.918;2023-06-10T04:37:37;15.55;;;14.45;;
17214;SDS011;8723;51.502;6.918;2023-06-10T04:40:05;15.65;;;14.45;;
17214;SDS011;8723;51.502;6.918;2023-06-10T04:42:32;16.97;;;15.70;;
17214;SDS011;8723;51.502;6.918;2023-06-10T04:45:01;17.90;;;16.52;;
17214;SDS011;8723;51.502;6.918;2023-06-10T04:47:28;16.25;;;15.05;;
17214;SDS011;8723;51.502;6.918;2023-06-10T04:49:58;17.37;;;16.00;;
17214;SDS011;8723;51.502;6.918;2023-06-10T04:52:25;18.08;;;16.77;;
17214;SDS011;8723;51.502;6.918;2023-06-10T04:54:52;18.20;;;16.80;;
17214;SDS011;8723;51.502;6.918;2023-06-10T04:57:19;24.15;;;22.67;;
17214;SDS011;8723;51.502;6.918;2023-06-10T04:59:46;26.52;;;24.98;;
17214;SDS011;8723;51.502;6.918;2023-06-10T05:02:14;46.30;;;43.90;;
17214;SDS011;8723;51.502;6.918;2023-06-10T05:04:41;37.45;;;35.35;;
17214;SDS011;8723;51.502;6.918;2023-06-10T05:07:08;39.83;;;37.67;;
17214;SDS011;8723;51.502;6.918;2023-06-10T05:09:35;30.20;;;28.40;;
17214;SDS011;8723;51.502;6.918;2023-06-10T05:12:02;42.30;;;40.00;;
17214;SDS011;8723;51.502;6.918;2023-06-10T05:14:29;49.20;;;46.58;;
17214;SDS011;8723;51.502;6.918;2023-06-10T05:16:56;79.72;;;76.07;;
17214;SDS011;8723;51.502;6.918;2023-06-10T05:19:24;101.23;;;96.73;;
17214;SDS011;8723;51.502;6.918;2023-06-10T05:21:52;107.80;;;102.87;;
17214;SDS011;8723;51.502;6.918;2023-06-10T05:24:19;110.00;;;105.15;;
17214;SDS011;8723;51.502;6.918;2023-06-10T05:26:46;107.80;;;103.05;;
17214;SDS011;8723;51.502;6.918;2023-06-10T05:29:13;77.93;;;74.25;;
17214;SDS011;8723;51.502;6.918;2023-06-10T05:31:41;58.67;;;55.78;;
17214;SDS011;8723;51.502;6.918;2023-06-10T05:34:08;103.75;;;99.03;;
17214;SDS011;8723;51.502;6.918;2023-06-10T05:36:36;104.80;;;100.10;;
17214;SDS011;8723;51.502;6.918;2023-06-10T05:39:03;121.17;;;115.87;;
17214;SDS011;8723;51.502;6.918;2023-06-10T05:41:29;123.28;;;118.03;;
17214;SDS011;8723;51.502;6.918;2023-06-10T05:43:56;94.05;;;89.85;;
17214;SDS011;8723;51.502;6.918;2023-06-10T05:46:23;89.33;;;85.43;;
17214;SDS011;8723;51.502;6.918;2023-06-10T05:48:50;76.63;;;73.18;;
17214;SDS011;8723;51.502;6.918;2023-06-10T05:51:16;57.08;;;54.38;;
17214;SDS011;8723;51.502;6.918;2023-06-10T05:53:45;49.73;;;47.27;;
17214;SDS011;8723;51.502;6.918;2023-06-10T05:56:12;50.63;;;48.22;;
17214;SDS011;8723;51.502;6.918;2023-06-10T05:58:39;35.60;;;33.78;;
17214;SDS011;8723;51.502;6.918;2023-06-10T06:01:06;33.00;;;31.20;;
17214;SDS011;8723;51.502;6.918;2023-06-10T06:03:33;24.02;;;22.60;;
17214;SDS011;8723;51.502;6.918;2023-06-10T06:06:00;27.13;;;25.52;;
17214;SDS011;8723;51.502;6.918;2023-06-10T06:08:26;24.40;;;23.10;;
17214;SDS011;8723;51.502;6.918;2023-06-10T06:10:55;22.90;;;21.33;;
17214;SDS011;8723;51.502;6.918;2023-06-10T06:13:21;26.35;;;24.52;;
17214;SDS011;8723;51.502;6.918;2023-06-10T06:15:48;23.13;;;21.83;;
17214;SDS011;8723;51.502;6.918;2023-06-10T06:18:15;23.95;;;22.65;;
17214;SDS011;8723;51.502;6.918;2023-06-10T06:20:43;25.05;;;23.65;;
17214;SDS011;8723;51.502;6.918;2023-06-10T06:23:10;36.17;;;34.35;;
17214;SDS011;8723;51.502;6.918;2023-06-10T06:25:37;37.35;;;35.35;;
17214;SDS011;8723;51.502;6.918;2023-06-10T06:28:05;28.42;;;26.88;;
17214;SDS011;8723;51.502;6.918;2023-06-10T06:30:32;38.55;;;36.65;;
17214;SDS011;8723;51.502;6.918;2023-06-10T06:32:59;37.03;;;35.22;;
17214;SDS011;8723;51.502;6.918;2023-06-10T06:35:26;35.15;;;33.47;;
17214;SDS011;8723;51.502;6.918;2023-06-10T06:37:53;31.00;;;29.40;;
17214;SDS011;8723;51.502;6.918;2023-06-10T06:40:20;32.22;;;30.52;;
17214;SDS011;8723;51.502;6.918;2023-06-10T06:42:46;39.55;;;37.55;;
17214;SDS011;8723;51.502;6.918;2023-06-10T06:45:15;58.30;;;55.60;;
17214;SDS011;8723;51.502;6.918;2023-06-10T06:47:42;85.28;;;81.63;;
17214;SDS011;8723;51.502;6.918;2023-06-10T06:50:09;104.97;;;100.43;;
17214;SDS011;8723;51.502;6.918;2023-06-10T06:52:36;78.93;;;75.40;;
17214;SDS011;8723;51.502;6.918;2023-06-10T06:55:03;125.05;;;119.75;;
17214;SDS011;8723;51.502;6.918;2023-06-10T06:57:30;122.22;;;117.10;;
17214;SDS011;8723;51.502;6.918;2023-06-10T06:59:57;129.60;;;124.07;;
17214;SDS011;8723;51.502;6.918;2023-06-10T07:02:25;128.57;;;123.18;;
17214;SDS011;8723;51.502;6.918;2023-06-10T07:04:52;133.38;;;127.85;;
17214;SDS011;8723;51.502;6.918;2023-06-10T07:07:21;159.25;;;152.40;;
17214;SDS011;8723;51.502;6.918;2023-06-10T07:09:47;155.87;;;149.13;;
17214;SDS011;8723;51.502;6.918;2023-06-10T07:12:14;168.75;;;161.48;;
17214;SDS011;8723;51.502;6.918;2023-06-10T07:14:41;177.02;;;169.55;;
17214;SDS011;8723;51.502;6.918;2023-06-10T07:17:08;139.50;;;133.50;;
17214;SDS011;8723;51.502;6.918;2023-06-10T07:19:36;143.20;;;137.10;;
17214;SDS011;8723;51.502;6.918;2023-06-10T07:22:03;150.02;;;143.68;;
17214;SDS011;8723;51.502;6.918;2023-06-10T07:24:30;167.80;;;160.55;;
17214;SDS011;8723;51.502;6.918;2023-06-10T07:26:57;135.70;;;129.95;;
17214;SDS011;8723;51.502;6.918;2023-06-10T07:29:24;148.13;;;141.93;;
17214;SDS011;8723;51.502;6.918;2023-06-10T07:31:50;149.75;;;143.45;;
17214;SDS011;8723;51.502;6.918;2023-06-10T07:34:18;124.38;;;119.03;;
17214;SDS011;8723;51.502;6.918;2023-06-10T07:36:46;128.13;;;122.70;;
17214;SDS011;8723;51.502;6.918;2023-06-10T07:39:13;125.03;;;119.63;;
17214;SDS011;8723;51.502;6.918;2023-06-10T07:41:40;161.75;;;155.00;;
17214;SDS011;8723;51.502;6.918;2023-06-10T07:44:06;149.88;;;143.55;;
17214;SDS011;8723;51.502;6.918;2023-06-10T07:46:33;218.45;;;208.75;;
17214;SDS011;8723;51.502;6.918;2023-06-10T07:49:00;196.63;;;187.93;;
17214;SDS011;8723;51.502;6.918;2023-06-10T07:51:27;191.15;;;182.35;;
17214;SDS011;8723;51.502;6.918;2023-06-10T07:53:55;210.05;;;199.95;;
17214;SDS011;8723;51.502;6.918;2023-06-10T07:56:22;216.35;;;205.93;;
17214;SDS011;8723;51.502;6.918;2023-06-10T07:58:50;166.13;;;157.80;;
17214;SDS011;8723;51.502;6.918;2023-06-10T08:01:17;178.27;;;169.13;;
17214;SDS011;8723;51.502;6.918;2023-06-10T08:03:44;164.32;;;155.80;;
17214;SDS011;8723;51.502;6.918;2023-06-10T08:06:10;144.63;;;136.85;;
17214;SDS011;8723;51.502;6.918;2023-06-10T08:08:37;86.75;;;82.15;;
17214;SDS011;8723;51.502;6.918;2023-06-10T08:11:08;54.78;;;51.90;;
17214;SDS011;8723;51.502;6.918;2023-06-10T08:13:35;36.17;;;34.23;;
17214;SDS011;8723;51.502;6.918;2023-06-10T08:16:02;23.08;;;21.73;;
17214;SDS011;8723;51.502;6.918;2023-06-10T08:18:29;27.58;;;26.10;;
17214;SDS011;8723;51.502;6.918;2023-06-10T08:20:56;22.55;;;21.15;;
17214;SDS011;8723;51.502;6.918;2023-06-10T08:23:23;16.13;;;15.13;;
17214;SDS011;8723;51.502;6.918;2023-06-10T08:25:49;27.65;;;26.23;;
17214;SDS011;8723;51.502;6.918;2023-06-10T08:28:18;23.10;;;21.70;;
17214;SDS011;8723;51.502;6.918;2023-06-10T08:30:44;32.67;;;31.08;;
17214;SDS011;8723;51.502;6.918;2023-06-10T08:33:11;24.95;;;23.35;;
17214;SDS011;8723;51.502;6.918;2023-06-10T08:35:38;35.00;;;33.27;;
17214;SDS011;8723;51.502;6.918;2023-06-10T08:38:05;28.98;;;27.23;;
17214;SDS011;8723;51.502;6.918;2023-06-10T08:40:32;31.45;;;29.75;;
17214;SDS011;8723;51.502;6.918;2023-06-10T08:43:00;46.00;;;43.63;;
17214;SDS011;8723;51.502;6.918;2023-06-10T08:45:34;33.92;;;32.33;;
17214;SDS011;8723;51.502;6.918;2023-06-10T08:48:02;32.53;;;30.93;;
17214;SDS011;8723;51.502;6.918;2023-06-10T08:50:31;27.53;;;26.13;;
17214;SDS011;8723;51.502;6.918;2023-06-10T08:53:00;20.67;;;19.30;;
17214;SDS011;8723;51.502;6.918;2023-06-10T08:55:30;19.27;;;18.08;;
17214;SDS011;8723;51.502;6.918;2023-06-10T08:57:59;14.43;;;13.63;;
17214;SDS011;8723;51.502;6.918;2023-06-10T09:00:26;12.93;;;12.23;;
17214;SDS011;8723;51.502;6.918;2023-06-10T09:02:56;13.98;;;13.07;;
17214;SDS011;8723;51.502;6.918;2023-06-10T09:05:24;17.77;;;16.77;;
17214;SDS011;8723;51.502;6.918;2023-06-10T09:07:53;19.67;;;18.60;;
17214;SDS011;8723;51.502;6.918;2023-06-10T09:10:20;15.02;;;14.00;;
17214;SDS011;8723;51.502;6.918;2023-06-10T09:12:47;10.30;;;9.60;;
17214;SDS011;8723;51.502;6.918;2023-06-10T09:15:14;9.02;;;8.30;;
17214;SDS011;8723;51.502;6.918;2023-06-10T09:17:42;8.50;;;7.80;;
17214;SDS011;8723;51.502;6.918;2023-06-10T09:20:11;7.82;;;7.13;;
17214;SDS011;8723;51.502;6.918;2023-06-10T09:22:38;8.48;;;7.78;;
17214;SDS011;8723;51.502;6.918;2023-06-10T09:25:05;8.68;;;7.97;;
17214;SDS011;8723;51.502;6.918;2023-06-10T09:27:35;9.80;;;9.10;;
17214;SDS011;8723;51.502;6.918;2023-06-10T09:30:20;8.25;;;7.55;;
17214;SDS011;8723;51.502;6.918;2023-06-10T09:32:51;7.88;;;7.35;;
17214;SDS011;8723;51.502;6.918;2023-06-10T09:35:20;9.52;;;8.93;;
17214;SDS011;8723;51.502;6.918;2023-06-10T09:37:48;7.93;;;7.23;;
17214;SDS011;8723;51.502;6.918;2023-06-10T09:40:17;7.68;;;6.97;;
17214;SDS011;8723;51.502;6.918;2023-06-10T09:42:44;7.95;;;7.32;;
17214;SDS011;8723;51.502;6.918;2023-06-10T09:45:14;12.35;;;11.55;;
17214;SDS011;8723;51.502;6.918;2023-06-10T09:47:41;10.05;;;9.35;;
17214;SDS011;8723;51.502;6.918;2023-06-10T09:50:08;11.82;;;10.93;;
17214;SDS011;8723;51.502;6.918;2023-06-10T09:52:37;13.15;;;12.23;;
17214;SDS011;8723;51.502;6.918;2023-06-10T09:55:04;14.35;;;13.35;;
17214;SDS011;8723;51.502;6.918;2023-06-10T09:57:34;16.55;;;15.65;;
17214;SDS011;8723;51.502;6.918;2023-06-10T10:00:04;17.55;;;16.50;;
17214;SDS011;8723;51.502;6.918;2023-06-10T10:02:31;19.40;;;18.30;;
17214;SDS011;8723;51.502;6.918;2023-06-10T10:05:01;16.13;;;15.23;;
17214;SDS011;8723;51.502;6.918;2023-06-10T10:07:29;21.13;;;20.02;;
17214;SDS011;8723;51.502;6.918;2023-06-10T10:09:57;22.55;;;21.45;;
17214;SDS011;8723;51.502;6.918;2023-06-10T10:12:24;13.30;;;12.40;;
17214;SDS011;8723;51.502;6.918;2023-06-10T10:14:52;14.20;;;13.30;;
17214;SDS011;8723;51.502;6.918;2023-06-10T10:17:21;17.73;;;16.63;;
17214;SDS011;8723;51.502;6.918;2023-06-10T10:19:53;16.73;;;15.83;;
17214;SDS011;8723;51.502;6.918;2023-06-10T10:22:24;16.50;;;15.55;;
17214;SDS011;8723;51.502;6.918;2023-06-10T10:24:53;18.67;;;17.65;;
17214;SDS011;8723;51.502;6.918;2023-06-10T10:27:26;21.73;;;20.58;;
17214;SDS011;8723;51.502;6.918;2023-06-10T10:29:55;24.02;;;22.52;;
17214;SDS011;8723;51.502;6.918;2023-06-10T10:32:26;22.02;;;20.92;;
17214;SDS011;8723;51.502;6.918;2023-06-10T10:35:01;25.13;;;23.83;;
17214;SDS011;8723;51.502;6.918;2023-06-10T10:37:33;28.05;;;26.55;;
17214;SDS011;8723;51.502;6.918;2023-06-10T10:40:01;32.55;;;30.95;;
17214;SDS011;8723;51.502;6.918;2023-06-10T10:42:31;20.77;;;19.45;;
17214;SDS011;8723;51.502;6.918;2023-06-10T10:44:59;23.70;;;22.60;;
17214;SDS011;8723;51.502;6.918;2023-06-10T10:47:26;29.58;;;28.13;;
17214;SDS011;8723;51.502;6.918;2023-06-10T10:49:55;22.70;;;21.30;;
17214;SDS011;8723;51.502;6.918;2023-06-10T10:52:24;28.83;;;27.42;;
17214;SDS011;8723;51.502;6.918;2023-06-10T10:54:52;18.60;;;17.67;;
17214;SDS011;8723;51.502;6.918;2023-06-10T10:57:20;39.90;;;38.10;;
17214;SDS011;8723;51.502;6.918;2023-06-10T10:59:53;47.53;;;45.33;;
17214;SDS011;8723;51.502;6.918;2023-06-10T11:02:32;37.78;;;35.97;;
17214;SDS011;8723;51.502;6.918;2023-06-10T11:05:04;30.77;;;29.40;;
17214;SDS011;8723;51.502;6.918;2023-06-10T11:07:32;10.38;;;9.50;;
17214;SDS011;8723;51.502;6.918;2023-06-10T11:10:02;16.00;;;15.17;;
17214;SDS011;8723;51.502;6.918;2023-06-10T11:12:49;9.45;;;8.57;;
17214;SDS011;8723;51.502;6.918;2023-06-10T11:15:19;10.30;;;9.30;;
17214;SDS011;8723;51.502;6.918;2023-06-10T11:20:54;21.73;;;20.60;;
17214;SDS011;8723;51.502;6.918;2023-06-10T11:26:17;10.60;;;9.90;;
17214;SDS011;8723;51.502;6.918;2023-06-10T11:29:01;10.03;;;9.40;;
17214;SDS011;8723;51.502;6.918;2023-06-10T11:31:38;9.60;;;9.00;;
17214;SDS011;8723;51.502;6.918;2023-06-10T11:34:07;11.98;;;11.18;;
17214;SDS011;8723;51.502;6.918;2023-06-10T11:36:36;12.80;;;12.02;;
17214;SDS011;8723;51.502;6.918;2023-06-10T11:39:05;13.68;;;12.90;;
17214;SDS011;8723;51.502;6.918;2023-06-10T11:41:33;13.00;;;12.10;;
17214;SDS011;8723;51.502;6.918;2023-06-10T11:44:01;14.43;;;13.32;;
17214;SDS011;8723;51.502;6.918;2023-06-10T11:46:29;14.02;;;13.13;;
17214;SDS011;8723;51.502;6.918;2023-06-10T11:48:57;12.23;;;11.35;;
17214;SDS011;8723;51.502;6.918;2023-06-10T11:51:26;10.45;;;9.80;;
17214;SDS011;8723;51.502;6.918;2023-06-10T11:53:54;9.77;;;9.18;;
17214;SDS011;8723;51.502;6.918;2023-06-10T11:56:21;12.63;;;11.63;;
17214;SDS011;8723;51.502;6.918;2023-06-10T11:58:52;11.63;;;10.95;;
17214;SDS011;8723;51.502;6.918;2023-06-10T12:01:20;12.13;;;11.38;;
17214;SDS011;8723;51.502;6.918;2023-06-10T12:03:48;10.93;;;10.18;;
17214;SDS011;8723;51.502;6.918;2023-06-10T12:06:23;10.10;;;9.30;;
17214;SDS011;8723;51.502;6.918;2023-06-10T12:08:50;9.90;;;9.05;;
17214;SDS011;8723;51.502;6.918;2023-06-10T12:11:17;8.37;;;7.67;;
17214;SDS011;8723;51.502;6.918;2023-06-10T12:13:47;7.50;;;6.72;;
17214;SDS011;8723;51.502;6.918;2023-06-10T12:16:15;7.50;;;6.90;;
17214;SDS011;8723;51.502;6.918;2023-06-10T12:18:44;8.45;;;6.78;;
17214;SDS011;8723;51.502;6.918;2023-06-10T12:21:20;8.52;;;7.80;;
17214;SDS011;8723;51.502;6.918;2023-06-10T12:24:09;7.85;;;7.00;;
17214;SDS011;8723;51.502;6.918;2023-06-10T12:26:37;8.50;;;7.88;;
17214;SDS011;8723;51.502;6.918;2023-06-10T12:31:59;9.02;;;8.23;;
17214;SDS011;8723;51.502;6.918;2023-06-10T12:34:31;8.23;;;7.70;;
17214;SDS011;8723;51.502;6.918;2023-06-10T12:36:59;8.73;;;7.93;;
17214;SDS011;8723;51.502;6.918;2023-06-10T12:39:29;7.47;;;6.95;;
17214;SDS011;8723;51.502;6.918;2023-06-10T12:41:56;8.70;;;8.10;;
17214;SDS011;8723;51.502;6.918;2023-06-10T12:44:30;8.20;;;7.57;;
17214;SDS011;8723;51.502;6.918;2023-06-10T12:46:57;8.05;;;7.45;;
17214;SDS011;8723;51.502;6.918;2023-06-10T12:49:25;12.53;;;11.67;;
17214;SDS011;8723;51.502;6.918;2023-06-10T12:51:52;16.93;;;15.83;;
17214;SDS011;8723;51.502;6.918;2023-06-10T12:54:19;13.00;;;12.20;;
17214;SDS011;8723;51.502;6.918;2023-06-10T12:56:48;17.83;;;16.88;;
17214;SDS011;8723;51.502;6.918;2023-06-10T12:59:14;16.13;;;15.07;;
17214;SDS011;8723;51.502;6.918;2023-06-10T13:01:41;14.02;;;13.23;;
17214;SDS011;8723;51.502;6.918;2023-06-10T13:04:08;17.50;;;16.50;;
17214;SDS011;8723;51.502;6.918;2023-06-10T13:06:35;15.93;;;14.77;;
17214;SDS011;8723;51.502;6.918;2023-06-10T13:09:04;17.98;;;16.77;;
17214;SDS011;8723;51.502;6.918;2023-06-10T13:11:33;12.60;;;11.80;;
17214;SDS011;8723;51.502;6.918;2023-06-10T13:14:01;20.05;;;19.05;;
17214;SDS011;8723;51.502;6.918;2023-06-10T13:16:30;21.05;;;19.85;;
17214;SDS011;8723;51.502;6.918;2023-06-10T13:18:57;20.25;;;19.23;;
17214;SDS011;8723;51.502;6.918;2023-06-10T13:21:24;21.50;;;20.35;;
17214;SDS011;8723;51.502;6.918;2023-06-10T13:23:51;23.98;;;22.60;;
17214;SDS011;8723;51.502;6.918;2023-06-10T13:26:18;24.33;;;23.10;;
17214;SDS011;8723;51.502;6.918;2023-06-10T13:28:45;27.05;;;25.65;;
17214;SDS011;8723;51.502;6.918;2023-06-10T13:31:13;33.40;;;31.90;;
17214;SDS011;8723;51.502;6.918;2023-06-10T13:33:40;32.28;;;30.67;;
17214;SDS011;8723;51.502;6.918;2023-06-10T13:36:08;33.65;;;31.83;;
17214;SDS011;8723;51.502;6.918;2023-06-10T13:38:35;50.70;;;48.47;;
17214;SDS011;8723;51.502;6.918;2023-06-10T13:41:02;50.53;;;48.35;;
17214;SDS011;8723;51.502;6.918;2023-06-10T13:43:29;61.47;;;58.87;;
17214;SDS011;8723;51.502;6.918;2023-06-10T13:45:55;82.50;;;79.20;;
17214;SDS011;8723;51.502;6.918;2023-06-10T13:48:23;63.00;;;60.38;;
17214;SDS011;8723;51.502;6.918;2023-06-10T13:50:50;67.30;;;64.33;;
17214;SDS011;8723;51.502;6.918;2023-06-10T13:53:17;35.30;;;33.53;;
17214;SDS011;8723;51.502;6.918;2023-06-10T13:55:44;32.47;;;30.92;;
17214;SDS011;8723;51.502;6.918;2023-06-10T13:58:11;38.63;;;36.83;;
17214;SDS011;8723;51.502;6.918;2023-06-10T14:00:37;16.55;;;15.57;;
17214;SDS011;8723;51.502;6.918;2023-06-10T14:03:04;17.50;;;16.60;;
17214;SDS011;8723;51.502;6.918;2023-06-10T14:05:32;34.95;;;33.28;;
17214;SDS011;8723;51.502;6.918;2023-06-10T14:07:59;25.08;;;23.58;;
17214;SDS011;8723;51.502;6.918;2023-06-10T14:10:26;16.05;;;15.15;;
17214;SDS011;8723;51.502;6.918;2023-06-10T14:12:53;15.23;;;14.13;;
17214;SDS011;8723;51.502;6.918;2023-06-10T14:15:20;19.73;;;18.73;;
17214;SDS011;8723;51.502;6.918;2023-06-10T14:17:46;16.75;;;15.75;;
17214;SDS011;8723;51.502;6.918;2023-06-10T14:20:13;27.70;;;26.33;;
17214;SDS011;8723;51.502;6.918;2023-06-10T14:22:41;23.35;;;22.08;;
17214;SDS011;8723;51.502;6.918;2023-06-10T14:25:08;20.50;;;19.30;;
17214;SDS011;8723;51.502;6.918;2023-06-10T14:27:36;25.98;;;24.58;;
17214;SDS011;8723;51.502;6.918;2023-06-10T14:30:03;40.55;;;38.55;;
17214;SDS011;8723;51.502;6.918;2023-06-10T14:32:30;25.05;;;23.75;;
17214;SDS011;8723;51.502;6.918;2023-06-10T14:34:57;25.77;;;24.58;;
17214;SDS011;8723;51.502;6.918;2023-06-10T14:37:24;27.80;;;26.30;;
17214;SDS011;8723;51.502;6.918;2023-06-10T14:39:52;29.70;;;28.20;;
17214;SDS011;8723;51.502;6.918;2023-06-10T14:42:19;26.25;;;24.95;;
17214;SDS011;8723;51.502;6.918;2023-06-10T14:44:46;22.17;;;21.02;;
17214;SDS011;8723;51.502;6.918;2023-06-10T14:47:13;20.88;;;19.67;;